Time;durP1;ratioP1;P1;durP2;ratioP2;P2;SDS_P1;SDS_P2;PMS_P1;PMS_P2;Temp;Humidity;BMP_temperature;BMP_pressure;BME280_temperature;BME280_humidity;BME280_pressure;Samples;Min_cycle;Max_cycle;Signal;HPM_P1;HPM_P2
2023/08/05 00:00:18;;;;;;;8.07;2.20;;;16.80;99.90;;;;;;4233281;28;20415;-80
2023/08/05 00:02:19;;;;;;;4.50;1.98;;;16.80;99.90;;;;;;4232917;28;20044;-81
2023/08/05 00:04:20;;;;;;;7.15;2.15;;;16.80;99.90;;;;;;4233243;28;20465;-80
2023/08/05 00:06:20;;;;;;;5.00;1.77;;;16.70;99.90;;;;;;4233659;28;20047;-81
2023/08/05 00:08:21;;;;;;;8.75;3.03;;;16.70;99.90;;;;;;4232350;28;20087;-81
2023/08/05 00:10:22;;;;;;;6.10;1.92;;;16.70;99.90;;;;;;4235493;28;20051;-81
2023/08/05 00:12:22;;;;;;;7.28;1.60;;;16.70;99.90;;;;;;4234601;28;20138;-81
2023/08/05 00:14:24;;;;;;;2.67;1.83;;;16.70;99.90;;;;;;4222265;28;20083;-81
2023/08/05 00:16:25;;;;;;;4.72;1.90;;;16.70;99.90;;;;;;4232186;28;20050;-81
2023/08/05 00:18:26;;;;;;;6.03;1.83;;;16.60;99.90;;;;;;4232688;28;20083;-81
2023/08/05 00:20:26;;;;;;;8.75;1.50;;;16.60;99.90;;;;;;4233429;28;20079;-81
2023/08/05 00:22:27;;;;;;;7.43;2.13;;;16.60;99.90;;;;;;4231966;28;20050;-80
2023/08/05 00:24:28;;;;;;;9.95;1.80;;;16.60;99.90;;;;;;4232519;28;20522;-81
2023/08/05 00:26:28;;;;;;;4.90;1.77;;;16.60;99.90;;;;;;4232438;28;20067;-81
2023/08/05 00:28:29;;;;;;;7.85;2.25;;;16.50;99.90;;;;;;4234148;28;20039;-81
2023/08/05 00:30:30;;;;;;;7.97;1.83;;;16.50;99.90;;;;;;4233563;28;20073;-81
2023/08/05 00:32:34;;;;;;;6.88;2.35;;;16.40;99.90;;;;;;4233606;28;20047;-81
2023/08/05 00:34:34;;;;;;;6.70;1.95;;;16.40;99.90;;;;;;4233724;28;20480;-80
2023/08/05 00:36:35;;;;;;;6.88;1.92;;;16.40;99.90;;;;;;4231126;28;20086;-81
2023/08/05 00:38:37;;;;;;;4.70;2.20;;;16.40;99.90;;;;;;4233568;28;20044;-81
2023/08/05 00:40:37;;;;;;;4.78;1.67;;;16.40;99.90;;;;;;4233051;28;20502;-81
2023/08/05 00:42:38;;;;;;;4.47;1.60;;;16.40;99.90;;;;;;4231794;28;20130;-81
2023/08/05 00:44:39;;;;;;;6.22;2.10;;;16.40;99.90;;;;;;4214451;28;20051;-81
2023/08/05 00:46:40;;;;;;;10.38;2.10;;;16.40;99.90;;;;;;4232863;28;20042;-81
2023/08/05 00:48:40;;;;;;;7.72;2.10;;;16.40;99.90;;;;;;4233252;28;20039;-81
2023/08/05 00:50:42;;;;;;;4.38;1.88;;;16.40;99.90;;;;;;4232928;28;20040;-81
2023/08/05 00:52:43;;;;;;;6.68;2.40;;;16.30;99.90;;;;;;4231961;28;20100;-81
2023/08/05 00:54:44;;;;;;;6.00;2.17;;;16.30;99.90;;;;;;4233564;28;20503;-81
2023/08/05 00:56:45;;;;;;;6.80;2.47;;;16.40;99.90;;;;;;4231460;28;20507;-81
2023/08/05 00:58:46;;;;;;;6.35;2.33;;;16.40;99.90;;;;;;4232989;28;20047;-81
2023/08/05 01:00:48;;;;;;;7.70;2.30;;;16.30;99.90;;;;;;4233021;28;20048;-81
2023/08/05 01:02:48;;;;;;;3.75;1.98;;;16.30;99.90;;;;;;4231845;28;20047;-81
2023/08/05 01:04:49;;;;;;;8.73;2.25;;;16.30;99.90;;;;;;4231521;28;20048;-81
2023/08/05 01:06:50;;;;;;;7.72;1.92;;;16.20;99.90;;;;;;4232711;28;20043;-80
2023/08/05 01:08:54;;;;;;;5.47;2.38;;;16.20;99.90;;;;;;4231612;28;20043;-80
2023/08/05 01:10:55;;;;;;;9.98;2.10;;;16.20;99.90;;;;;;4231574;28;20109;-81
2023/08/05 01:12:55;;;;;;;5.90;1.90;;;16.20;99.90;;;;;;4232473;28;20035;-81
2023/08/05 01:14:56;;;;;;;5.38;2.20;;;16.10;99.90;;;;;;4231449;28;20047;-81
2023/08/05 01:16:57;;;;;;;8.57;1.95;;;16.10;99.90;;;;;;4231431;28;20044;-81
2023/08/05 01:18:58;;;;;;;4.90;2.58;;;16.00;99.90;;;;;;4231393;28;20119;-81
2023/08/05 01:21:02;;;;;;;4.57;2.17;;;16.00;99.90;;;;;;4230906;28;20048;-81
2023/08/05 01:23:12;;;;;;;5.75;1.90;;;16.00;99.90;;;;;;4231269;28;20459;-80
2023/08/05 01:25:30;;;;;;;5.93;2.38;;;15.90;99.90;;;;;;4230761;28;20179;-81
2023/08/05 01:27:32;;;;;;;7.78;2.63;;;15.90;99.90;;;;;;4232419;28;20122;-81
2023/08/05 01:29:33;;;;;;;5.45;2.75;;;15.80;99.90;;;;;;4214467;28;20048;-81
2023/08/05 01:31:35;;;;;;;5.90;2.85;;;15.70;99.90;;;;;;4213632;28;20044;-81
2023/08/05 01:33:36;;;;;;;5.72;1.88;;;15.70;99.90;;;;;;4231440;28;20078;-81
2023/08/05 01:35:37;;;;;;;7.32;1.92;;;15.70;99.90;;;;;;4214413;28;20108;-81
2023/08/05 01:37:37;;;;;;;6.82;2.28;;;15.60;99.90;;;;;;4231054;28;20151;-81
2023/08/05 01:39:38;;;;;;;6.88;2.20;;;15.60;99.90;;;;;;4231247;28;20076;-81
2023/08/05 01:41:38;;;;;;;6.65;2.42;;;15.60;99.90;;;;;;4230793;28;20051;-80
2023/08/05 01:43:39;;;;;;;8.70;2.40;;;15.60;99.90;;;;;;4213812;28;20063;-81
2023/08/05 01:45:40;;;;;;;5.38;2.20;;;15.50;99.90;;;;;;4213805;28;20113;-81
2023/08/05 01:47:41;;;;;;;11.50;3.80;;;15.50;99.90;;;;;;4231247;28;20048;-81
2023/08/05 01:49:42;;;;;;;8.30;2.22;;;15.50;99.90;;;;;;4232464;28;20044;-81
2023/08/05 01:51:43;;;;;;;9.15;2.78;;;15.40;99.90;;;;;;4230897;28;20044;-81
2023/08/05 01:53:43;;;;;;;5.35;2.45;;;16.60;99.90;;;;;;4214421;28;20105;-81
2023/08/05 01:55:44;;;;;;;8.32;2.50;;;15.40;99.90;;;;;;4230925;28;20046;-81
2023/08/05 01:57:45;;;;;;;6.13;2.15;;;15.30;99.90;;;;;;4231920;28;20391;-81
2023/08/05 01:59:45;;;;;;;7.38;2.20;;;15.50;99.90;;;;;;4231873;28;20064;-81
2023/08/05 02:01:47;;;;;;;4.35;2.22;;;15.30;99.90;;;;;;4230810;28;20050;-81
2023/08/05 02:03:48;;;;;;;4.25;2.45;;;15.30;99.90;;;;;;4230963;28;20131;-81
2023/08/05 02:05:48;;;;;;;6.70;2.20;;;15.20;99.90;;;;;;4214041;28;20493;-81
2023/08/05 02:07:49;;;;;;;6.95;2.65;;;15.20;99.90;;;;;;4230479;28;20094;-81
2023/08/05 02:09:49;;;;;;;6.97;2.40;;;15.20;99.90;;;;;;4232385;28;20131;-81
2023/08/05 02:11:50;;;;;;;4.85;2.28;;;15.20;99.90;;;;;;4232078;28;20031;-81
2023/08/05 02:13:51;;;;;;;8.35;2.72;;;15.10;99.90;;;;;;4230891;28;20092;-81
2023/08/05 02:15:51;;;;;;;9.23;2.25;;;15.20;99.90;;;;;;4230890;28;20036;-81
2023/08/05 02:17:52;;;;;;;6.70;2.70;;;15.10;99.90;;;;;;4230691;28;20144;-81
2023/08/05 02:19:52;;;;;;;6.68;3.08;;;15.10;99.90;;;;;;4230224;28;20116;-81
2023/08/05 02:21:53;;;;;;;5.78;2.63;;;15.00;99.90;;;;;;4230267;28;20449;-81
2023/08/05 02:23:54;;;;;;;5.65;2.17;;;14.80;99.90;;;;;;4230484;28;20079;-81
2023/08/05 02:25:55;;;;;;;8.00;2.70;;;14.90;99.90;;;;;;4229990;28;20043;-81
2023/08/05 02:27:56;;;;;;;5.55;2.20;;;15.10;99.90;;;;;;4230412;28;20093;-81
2023/08/05 02:29:57;;;;;;;5.90;2.60;;;14.90;99.90;;;;;;4231916;28;20495;-81
2023/08/05 02:31:58;;;;;;;8.02;2.70;;;14.80;99.90;;;;;;4230177;28;20075;-81
2023/08/05 02:33:59;;;;;;;4.85;2.50;;;14.80;99.90;;;;;;4229630;28;20051;-81
2023/08/05 02:36:00;;;;;;;6.35;2.28;;;14.70;99.90;;;;;;4231306;28;20099;-81
2023/08/05 02:38:01;;;;;;;6.53;2.38;;;14.90;99.90;;;;;;4231841;28;20165;-81
2023/08/05 02:40:01;;;;;;;5.93;2.40;;;14.80;99.90;;;;;;4213863;28;20048;-81
2023/08/05 02:42:02;;;;;;;4.40;2.53;;;14.70;99.90;;;;;;4229957;28;20052;-81
2023/08/05 02:44:03;;;;;;;8.13;2.88;;;14.60;99.90;;;;;;4229818;28;20050;-81
2023/08/05 02:46:04;;;;;;;7.50;2.58;;;14.60;99.90;;;;;;4229890;28;20548;-81
2023/08/05 02:48:05;;;;;;;6.95;2.90;;;14.40;99.90;;;;;;4230174;28;20112;-81
2023/08/05 02:50:09;;;;;;;6.20;2.35;;;14.60;99.90;;;;;;4230090;28;20066;-81
2023/08/05 02:52:10;;;;;;;4.93;2.20;;;14.60;99.90;;;;;;4230291;28;20047;-81
2023/08/05 02:54:10;;;;;;;6.88;2.70;;;14.40;99.90;;;;;;4230310;28;20043;-81
2023/08/05 02:56:11;;;;;;;5.80;2.35;;;14.50;99.90;;;;;;4231632;28;20513;-81
2023/08/05 02:58:13;;;;;;;7.63;2.95;;;14.70;99.90;;;;;;4229943;28;20054;-81
2023/08/05 03:00:14;;;;;;;8.23;2.75;;;14.40;99.90;;;;;;4231190;28;20047;-81
2023/08/05 03:02:14;;;;;;;5.25;2.38;;;14.30;99.90;;;;;;4231452;28;20043;-81
2023/08/05 03:04:15;;;;;;;4.72;2.47;;;14.40;99.90;;;;;;4230363;28;20623;-81
2023/08/05 03:06:16;;;;;;;9.80;3.58;;;14.50;99.90;;;;;;4229757;28;20043;-81
2023/08/05 03:08:16;;;;;;;3.22;2.35;;;14.40;99.90;;;;;;4229691;28;20082;-81
2023/08/05 03:10:17;;;;;;;6.60;2.50;;;14.70;99.90;;;;;;4229557;28;20058;-81
2023/08/05 03:12:18;;;;;;;5.32;2.85;;;14.50;99.90;;;;;;4230617;28;20039;-81
2023/08/05 03:14:18;;;;;;;8.48;3.03;;;14.50;99.90;;;;;;4230273;28;20044;-81
2023/08/05 03:16:19;;;;;;;7.93;2.80;;;14.40;99.90;;;;;;4213158;28;20075;-81
2023/08/05 03:18:20;;;;;;;10.63;3.17;;;14.50;99.90;;;;;;4229538;28;20484;-81
2023/08/05 03:20:25;;;;;;;6.13;2.55;;;14.40;99.90;;;;;;4230518;28;20122;-82
2023/08/05 03:22:27;;;;;;;9.10;2.40;;;14.40;99.90;;;;;;4229198;28;20051;-82
2023/08/05 03:24:27;;;;;;;7.70;2.60;;;14.40;99.90;;;;;;4229391;28;20430;-81
2023/08/05 03:26:28;;;;;;;10.85;3.13;;;14.30;99.90;;;;;;4229338;28;20043;-81
2023/08/05 03:28:28;;;;;;;5.53;2.58;;;14.40;99.90;;;;;;4229809;28;20203;-81
2023/08/05 03:30:29;;;;;;;5.72;2.67;;;14.40;99.90;;;;;;4229145;28;20048;-81
2023/08/05 03:32:30;;;;;;;7.05;2.55;;;14.40;99.90;;;;;;4231242;28;20043;-81
2023/08/05 03:34:32;;;;;;;7.22;2.35;;;14.40;99.90;;;;;;4230495;28;20490;-81
2023/08/05 03:36:33;;;;;;;8.85;2.97;;;14.50;99.90;;;;;;4230985;28;20048;-81
2023/08/05 03:38:34;;;;;;;8.10;2.35;;;14.70;99.90;;;;;;4231137;28;20044;-81
2023/08/05 03:40:35;;;;;;;7.40;3.17;;;14.40;99.90;;;;;;4229547;28;20411;-81
2023/08/05 03:42:35;;;;;;;8.65;2.10;;;14.50;99.90;;;;;;4230856;28;20047;-81
2023/08/05 03:44:36;;;;;;;6.00;2.17;;;14.60;99.90;;;;;;4229620;28;20114;-81
2023/08/05 03:46:37;;;;;;;7.30;2.72;;;14.50;99.90;;;;;;4230348;28;20154;-81
2023/08/05 03:48:38;;;;;;;6.57;1.90;;;14.50;99.90;;;;;;4229948;28;20051;-81
2023/08/05 03:50:38;;;;;;;7.07;1.92;;;14.50;99.90;;;;;;4229715;28;20102;-81
2023/08/05 03:52:39;;;;;;;3.92;1.90;;;14.80;99.90;;;;;;4229554;28;20054;-81
2023/08/05 03:54:40;;;;;;;6.88;2.45;;;14.50;99.90;;;;;;4229137;28;20048;-81
2023/08/05 03:56:41;;;;;;;6.43;1.95;;;14.50;99.90;;;;;;4228697;28;20051;-81
2023/08/05 03:58:42;;;;;;;3.33;2.00;;;14.50;99.90;;;;;;4230671;28;20052;-81
2023/08/05 04:00:43;;;;;;;7.28;2.65;;;14.50;99.90;;;;;;4229146;28;20071;-81
2023/08/05 04:02:44;;;;;;;4.88;3.03;;;14.50;99.90;;;;;;4212703;28;20045;-81
2023/08/05 04:04:44;;;;;;;3.78;1.80;;;14.50;99.90;;;;;;4229714;28;20448;-81
2023/08/05 04:06:45;;;;;;;10.63;2.40;;;14.60;99.90;;;;;;4228784;28;20514;-81
2023/08/05 04:08:53;;;;;;;10.35;2.10;;;14.50;99.90;;;;;;4226914;28;20052;-81
2023/08/05 04:10:54;;;;;;;9.80;2.63;;;14.50;99.90;;;;;;4231029;28;20105;-81
2023/08/05 04:12:56;;;;;;;7.00;2.10;;;14.50;99.90;;;;;;4230142;28;20032;-81
2023/08/05 04:14:58;;;;;;;8.20;2.22;;;14.50;99.90;;;;;;4229275;28;20054;-81
2023/08/05 04:17:01;;;;;;;4.53;2.10;;;14.60;99.90;;;;;;4228415;28;20040;-81
2023/08/05 04:19:03;;;;;;;8.15;2.38;;;14.50;99.90;;;;;;4228761;28;20178;-81
2023/08/05 04:21:04;;;;;;;5.97;1.83;;;14.60;99.90;;;;;;4230171;28;20040;-81
2023/08/05 04:23:08;;;;;;;8.25;1.88;;;14.60;99.90;;;;;;4231537;28;20054;-81
2023/08/05 04:25:08;;;;;;;6.28;2.20;;;14.70;99.90;;;;;;4231635;28;20051;-81
2023/08/05 04:27:09;;;;;;;5.93;2.10;;;14.60;99.90;;;;;;4231714;28;20563;-81
2023/08/05 04:29:10;;;;;;;4.05;1.70;;;14.60;99.90;;;;;;4233131;28;20109;-81
2023/08/05 04:31:11;;;;;;;8.80;2.47;;;14.60;99.90;;;;;;4231883;28;20040;-81
2023/08/05 04:33:13;;;;;;;5.82;2.10;;;14.60;99.90;;;;;;4233015;28;20484;-81
2023/08/05 04:35:13;;;;;;;7.43;2.30;;;14.60;99.90;;;;;;4214187;28;20044;-81
2023/08/05 04:37:19;;;;;;;5.32;1.73;;;14.60;99.90;;;;;;4231655;28;20066;-81
2023/08/05 04:39:20;;;;;;;7.32;2.15;;;14.80;99.90;;;;;;4232207;28;20052;-81
2023/08/05 04:41:21;;;;;;;5.47;1.88;;;14.60;99.90;;;;;;4231927;28;20050;-81
2023/08/05 04:43:22;;;;;;;6.00;1.88;;;14.60;99.90;;;;;;4231429;28;20119;-81
2023/08/05 04:45:23;;;;;;;4.20;1.70;;;14.60;99.90;;;;;;4213928;28;20101;-81
2023/08/05 04:47:24;;;;;;;9.25;3.20;;;14.70;99.90;;;;;;4232047;28;20043;-81
2023/08/05 04:49:26;;;;;;;7.47;2.03;;;14.80;99.90;;;;;;4232110;28;20051;-81
2023/08/05 04:51:26;;;;;;;3.38;1.70;;;14.60;99.90;;;;;;4231554;28;20140;-81
2023/08/05 04:53:27;;;;;;;6.32;2.30;;;14.60;99.90;;;;;;4214553;28;20457;-81
2023/08/05 04:55:27;;;;;;;4.68;2.50;;;14.60;99.90;;;;;;4214705;28;20090;-81
2023/08/05 04:57:28;;;;;;;7.30;2.13;;;14.70;99.90;;;;;;4232769;28;20043;-81
2023/08/05 04:59:29;;;;;;;5.60;2.20;;;14.90;99.90;;;;;;4231723;28;20483;-81
2023/08/05 05:01:29;;;;;;;5.35;2.00;;;14.80;99.90;;;;;;4232638;28;20081;-81
2023/08/05 05:03:30;;;;;;;4.80;2.03;;;14.80;99.90;;;;;;4213664;28;20089;-81
2023/08/05 05:05:32;;;;;;;8.13;2.90;;;14.90;99.90;;;;;;4231084;28;20047;-81
2023/08/05 05:07:33;;;;;;;3.30;2.00;;;14.80;99.90;;;;;;4231444;28;20055;-81
2023/08/05 05:09:34;;;;;;;3.67;1.70;;;14.90;99.90;;;;;;4231484;28;20546;-81
2023/08/05 05:11:35;;;;;;;5.80;1.83;;;14.90;99.90;;;;;;4232601;28;20047;-81
2023/08/05 05:13:36;;;;;;;10.55;3.40;;;14.90;99.90;;;;;;4231148;28;20048;-81
2023/08/05 05:15:37;;;;;;;6.78;1.33;;;15.00;99.90;;;;;;4230658;28;20400;-81
2023/08/05 05:17:38;;;;;;;6.50;2.10;;;15.00;99.90;;;;;;4230597;28;20087;-81
2023/08/05 05:19:39;;;;;;;3.95;2.15;;;15.10;99.90;;;;;;4231368;28;20539;-81
2023/08/05 05:21:40;;;;;;;6.10;2.10;;;15.30;99.90;;;;;;4230629;28;20059;-81
2023/08/05 05:23:40;;;;;;;9.85;3.05;;;15.20;99.90;;;;;;4232209;28;20216;-81
2023/08/05 05:25:41;;;;;;;5.50;1.80;;;15.20;99.90;;;;;;4230653;28;20146;-81
2023/08/05 05:27:42;;;;;;;5.68;2.05;;;15.30;99.90;;;;;;4230933;28;20043;-81
2023/08/05 05:29:42;;;;;;;6.03;2.03;;;15.30;99.90;;;;;;4232157;28;20047;-81
2023/08/05 05:31:43;;;;;;;4.47;2.55;;;15.30;99.90;;;;;;4231852;28;20043;-81
2023/08/05 05:33:47;;;;;;;7.47;1.95;;;15.40;99.90;;;;;;4213945;28;20036;-81
2023/08/05 05:35:49;;;;;;;4.28;1.73;;;15.40;99.90;;;;;;4231400;28;20048;-81
2023/08/05 05:37:50;;;;;;;3.45;1.67;;;15.40;99.90;;;;;;4231916;27;20035;-81
2023/08/05 05:39:52;;;;;;;3.85;1.80;;;15.40;99.90;;;;;;4232109;28;20092;-81
2023/08/05 05:41:52;;;;;;;6.15;1.90;;;15.20;99.90;;;;;;4229823;28;20043;-81
2023/08/05 05:43:55;;;;;;;5.50;2.72;;;15.60;99.90;;;;;;4231265;28;20039;-81
2023/08/05 05:45:56;;;;;;;5.85;2.03;;;15.70;99.90;;;;;;4230500;28;20074;-81
2023/08/05 05:47:57;;;;;;;6.55;1.98;;;15.80;99.90;;;;;;4230629;28;20043;-81
2023/08/05 05:49:58;;;;;;;2.78;1.67;;;15.80;99.90;;;;;;4230690;28;20495;-81
2023/08/05 05:51:58;;;;;;;6.50;2.20;;;15.90;99.90;;;;;;4231844;28;20044;-81
2023/08/05 05:53:59;;;;;;;4.35;2.05;;;15.90;99.90;;;;;;4232016;28;20042;-81
2023/08/05 05:56:00;;;;;;;3.50;1.63;;;15.90;99.90;;;;;;4231286;28;20487;-81
2023/08/05 05:58:00;;;;;;;6.00;1.30;;;15.90;99.90;;;;;;4232212;28;20104;-81
2023/08/05 06:00:01;;;;;;;4.28;1.75;;;15.90;99.90;;;;;;4231938;28;20039;-81
2023/08/05 06:02:02;;;;;;;3.70;1.80;;;15.80;99.90;;;;;;4214001;28;20048;-81
2023/08/05 06:04:07;;;;;;;8.40;1.85;;;15.80;99.90;;;;;;4230571;28;20385;-81
2023/08/05 06:06:08;;;;;;;3.83;1.77;;;15.80;99.90;;;;;;4212916;28;20046;-81
2023/08/05 06:08:09;;;;;;;6.47;1.75;;;15.80;99.90;;;;;;4213406;28;20083;-81
2023/08/05 06:10:09;;;;;;;4.10;1.50;;;15.80;99.90;;;;;;4231371;28;20044;-81
2023/08/05 06:12:10;;;;;;;3.75;1.25;;;15.80;99.90;;;;;;4231292;28;20486;-81
2023/08/05 06:14:11;;;;;;;4.22;1.60;;;15.80;99.90;;;;;;4231600;28;20053;-81
2023/08/05 06:16:11;;;;;;;8.80;2.03;;;15.80;99.90;;;;;;4229880;28;20119;-81
2023/08/05 06:18:12;;;;;;;5.32;1.23;;;15.90;99.90;;;;;;4230193;28;20047;-81
2023/08/05 06:20:13;;;;;;;3.75;1.42;;;15.90;99.90;;;;;;4213588;28;20040;-81
2023/08/05 06:22:13;;;;;;;3.80;1.70;;;15.90;99.90;;;;;;4230151;28;20050;-81
2023/08/05 06:24:14;;;;;;;5.22;1.38;;;16.00;99.90;;;;;;4230046;28;20039;-81
2023/08/05 06:26:15;;;;;;;4.45;1.63;;;16.10;99.90;;;;;;4229712;28;20128;-81
2023/08/05 06:28:16;;;;;;;3.83;1.20;;;16.10;99.90;;;;;;4231737;28;20075;-81
2023/08/05 06:30:16;;;;;;;5.80;1.35;;;16.20;99.90;;;;;;4230042;28;20046;-81
2023/08/05 06:32:17;;;;;;;2.53;0.90;;;16.30;99.90;;;;;;4230083;28;20043;-81
2023/08/05 06:34:20;;;;;;;3.85;1.40;;;16.40;99.90;;;;;;4230047;28;20058;-81
2023/08/05 06:36:20;;;;;;;6.90;2.17;;;16.50;99.90;;;;;;4229340;28;20089;-81
2023/08/05 06:38:21;;;;;;;3.35;1.60;;;16.60;99.90;;;;;;4231210;28;20043;-81
2023/08/05 06:40:22;;;;;;;6.53;1.83;;;16.60;99.90;;;;;;4229944;28;20126;-81
2023/08/05 06:42:24;;;;;;;1.77;1.25;;;16.60;99.90;;;;;;4229628;28;20055;-81
2023/08/05 06:44:24;;;;;;;4.82;1.95;;;16.70;99.90;;;;;;4229825;28;20043;-81
2023/08/05 06:46:25;;;;;;;2.80;1.23;;;16.70;99.90;;;;;;4229240;28;20056;-81
2023/08/05 06:48:25;;;;;;;4.65;1.55;;;16.80;99.90;;;;;;4213041;28;20047;-81
2023/08/05 06:50:26;;;;;;;2.80;1.00;;;16.80;99.90;;;;;;4212863;28;20059;-81
2023/08/05 06:52:27;;;;;;;3.78;1.23;;;16.80;99.90;;;;;;4212472;28;20072;-81
2023/08/05 06:54:27;;;;;;;7.75;1.67;;;16.90;99.90;;;;;;4212659;28;20051;-81
2023/08/05 06:56:28;;;;;;;1.33;1.08;;;17.00;99.90;;;;;;4230619;28;20054;-81
2023/08/05 06:58:29;;;;;;;6.43;1.52;;;17.10;99.90;;;;;;4229110;28;20054;-81
2023/08/05 07:00:30;;;;;;;4.55;1.63;;;17.20;99.90;;;;;;4229651;28;20051;-81
2023/08/05 07:02:31;;;;;;;6.05;1.42;;;17.20;99.90;;;;;;4229483;28;20530;-81
2023/08/05 07:04:32;;;;;;;3.00;1.23;;;17.30;99.90;;;;;;4230601;28;20050;-81
2023/08/05 07:06:33;;;;;;;2.30;1.20;;;17.40;99.90;;;;;;4229280;28;20424;-81
2023/08/05 07:08:33;;;;;;;4.05;1.05;;;17.50;99.90;;;;;;4230524;28;20182;-81
2023/08/05 07:10:34;;;;;;;3.90;1.30;;;17.60;99.90;;;;;;4230784;28;20102;-81
2023/08/05 07:12:35;;;;;;;1.90;1.23;;;17.70;99.90;;;;;;4230625;28;20453;-81
2023/08/05 07:14:35;;;;;;;4.28;1.15;;;17.90;99.90;;;;;;4230770;28;20047;-81
2023/08/05 07:16:36;;;;;;;4.22;2.03;;;17.90;99.90;;;;;;4228644;28;20036;-81
2023/08/05 07:18:37;;;;;;;1.58;1.08;;;17.90;99.90;;;;;;4229534;28;20053;-81
2023/08/05 07:20:40;;;;;;;3.47;1.30;;;18.00;99.90;;;;;;4229154;28;20142;-81
2023/08/05 07:22:41;;;;;;;2.80;1.20;;;18.00;99.90;;;;;;4229437;28;20527;-81
2023/08/05 07:24:41;;;;;;;4.05;1.60;;;18.00;99.90;;;;;;4236675;28;20070;-81
2023/08/05 07:26:42;;;;;;;2.42;1.10;;;17.90;99.90;;;;;;4224186;28;20161;-81
2023/08/05 07:28:44;;;;;;;1.67;1.10;;;17.90;99.90;;;;;;4230656;28;20044;-81
2023/08/05 07:30:44;;;;;;;3.47;1.38;;;17.90;99.90;;;;;;4230214;28;20047;-81
2023/08/05 07:32:45;;;;;;;2.28;1.02;;;17.80;99.90;;;;;;4230037;28;20130;-81
2023/08/05 07:34:47;;;;;;;2.53;1.02;;;17.70;99.90;;;;;;4230124;28;20055;-81
2023/08/05 07:36:48;;;;;;;2.97;1.20;;;17.70;99.90;;;;;;4230732;28;20122;-81
2023/08/05 07:38:51;;;;;;;2.92;1.33;;;17.70;99.90;;;;;;4229500;28;20047;-81
2023/08/05 07:40:55;;;;;;;6.15;1.30;;;17.70;99.90;;;;;;4229062;28;20534;-81
2023/08/05 07:42:56;;;;;;;1.85;1.00;;;17.80;99.90;;;;;;4229468;28;20054;-81
2023/08/05 07:44:57;;;;;;;2.75;1.20;;;17.80;99.90;;;;;;4230705;28;20047;-81
2023/08/05 07:46:58;;;;;;;3.90;1.20;;;17.80;99.90;;;;;;4230396;28;20054;-81
2023/08/05 07:49:00;;;;;;;4.13;1.10;;;17.90;99.90;;;;;;4212401;28;20497;-81
2023/08/05 07:51:00;;;;;;;3.10;1.30;;;17.90;99.90;;;;;;4228811;28;20060;-81
2023/08/05 07:53:03;;;;;;;4.45;1.38;;;17.90;99.90;;;;;;4229892;28;20118;-81
2023/08/05 07:55:04;;;;;;;5.85;1.92;;;17.90;99.90;;;;;;4212288;28;20066;-81
2023/08/05 07:57:05;;;;;;;2.38;0.98;;;17.90;99.90;;;;;;4229929;28;20109;-81
2023/08/05 07:59:06;;;;;;;3.33;1.50;;;18.00;99.90;;;;;;4233821;28;20067;-81
2023/08/05 08:01:07;;;;;;;5.80;1.50;;;17.90;99.90;;;;;;4231942;28;20055;-81
2023/08/05 08:03:08;;;;;;;2.22;1.00;;;17.90;99.90;;;;;;4232239;28;20066;-79
2023/08/05 08:05:08;;;;;;;1.15;0.98;;;18.00;99.90;;;;;;4232796;28;20483;-79
2023/08/05 08:07:09;;;;;;;1.48;0.93;;;18.10;99.90;;;;;;4232024;28;20055;-80
2023/08/05 08:09:10;;;;;;;4.97;1.20;;;18.20;99.90;;;;;;4231765;28;20044;-80
2023/08/05 08:11:11;;;;;;;2.17;1.35;;;18.30;99.90;;;;;;4233538;28;20048;-82
2023/08/05 08:13:12;;;;;;;2.08;1.20;;;18.50;99.90;;;;;;4232610;28;20423;-80
2023/08/05 08:15:13;;;;;;;3.10;1.30;;;18.60;99.90;;;;;;4233731;28;20035;-79
2023/08/05 08:17:13;;;;;;;2.30;1.20;;;18.70;99.90;;;;;;4215274;28;20047;-80
2023/08/05 08:19:16;;;;;;;1.65;1.00;;;18.90;99.90;;;;;;4232214;28;20072;-80
2023/08/05 08:21:16;;;;;;;2.60;1.10;;;18.90;99.90;;;;;;4239236;28;20145;-81
2023/08/05 08:23:18;;;;;;;2.42;1.15;;;19.00;99.90;;;;;;4242267;28;20584;-80
2023/08/05 08:25:19;;;;;;;4.63;1.10;;;19.00;99.90;;;;;;4234850;28;20089;-80
2023/08/05 08:27:19;;;;;;;2.75;1.15;;;19.00;99.90;;;;;;4233532;28;20047;-80
2023/08/05 08:29:20;;;;;;;2.92;1.85;;;19.10;99.90;;;;;;4233793;28;20040;-80
2023/08/05 08:31:21;;;;;;;2.40;1.13;;;19.10;99.90;;;;;;4232872;28;20054;-80
2023/08/05 08:33:23;;;;;;;4.53;1.75;;;19.10;99.90;;;;;;4233650;27;20150;-79
2023/08/05 08:35:24;;;;;;;2.03;1.23;;;19.00;99.90;;;;;;4231951;28;20044;-80
2023/08/05 08:37:25;;;;;;;2.15;1.02;;;19.10;99.90;;;;;;4233692;28;20517;-80
2023/08/05 08:39:25;;;;;;;2.88;0.88;;;19.10;99.90;;;;;;4232082;28;20547;-80
2023/08/05 08:41:27;;;;;;;4.72;1.42;;;19.20;99.90;;;;;;4231389;28;20427;-80
2023/08/05 08:43:28;;;;;;;1.80;1.17;;;19.20;99.90;;;;;;4233743;28;20054;-80
2023/08/05 08:45:33;;;;;;;1.77;1.02;;;19.20;99.90;;;;;;4232488;28;20048;-80
2023/08/05 08:47:35;;;;;;;1.70;1.15;;;19.10;99.90;;;;;;4231745;28;20058;-79
2023/08/05 08:49:36;;;;;;;5.50;1.00;;;19.20;99.90;;;;;;4232778;28;20488;-79
2023/08/05 08:51:38;;;;;;;4.00;1.25;;;19.20;99.90;;;;;;4231440;28;20106;-80
2023/08/05 08:53:42;;;;;;;3.60;1.10;;;19.20;99.90;;;;;;4214822;28;20059;-80
2023/08/05 08:55:43;;;;;;;2.90;1.40;;;19.30;99.90;;;;;;4231344;28;20542;-80
2023/08/05 08:57:44;;;;;;;2.92;1.30;;;19.20;99.90;;;;;;4231781;28;20448;-80
2023/08/05 08:59:44;;;;;;;2.38;1.15;;;19.30;99.90;;;;;;4231514;28;20059;-80
2023/08/05 09:01:47;;;;;;;3.10;0.98;;;19.20;99.90;;;;;;4214604;28;20067;-80
2023/08/05 09:03:51;;;;;;;2.53;1.10;;;19.40;99.90;;;;;;4230867;28;20047;-80
2023/08/05 09:05:58;;;;;;;4.40;1.20;;;19.50;99.90;;;;;;4231049;28;20086;-80
2023/08/05 09:08:01;;;;;;;4.88;1.45;;;19.70;99.90;;;;;;4232970;28;20039;-80
2023/08/05 09:10:05;;;;;;;2.55;1.10;;;19.90;99.90;;;;;;4229545;28;20091;-80
2023/08/05 09:12:06;;;;;;;2.83;1.08;;;20.20;99.90;;;;;;4232514;28;20047;-80
2023/08/05 09:14:07;;;;;;;3.45;1.67;;;20.30;99.90;;;;;;4231317;28;20043;-80
2023/08/05 09:16:13;;;;;;;2.80;1.10;;;20.20;99.90;;;;;;4232353;28;20031;-80
2023/08/05 09:18:14;;;;;;;3.10;0.90;;;20.00;99.90;;;;;;4231112;28;20069;-80
2023/08/05 09:20:22;;;;;;;3.63;1.10;;;19.90;99.90;;;;;;4231248;28;20079;-80
2023/08/05 09:22:22;;;;;;;3.38;1.05;;;19.80;99.90;;;;;;4230729;28;20080;-80
2023/08/05 09:24:24;;;;;;;3.00;1.40;;;19.80;99.90;;;;;;4232462;28;20046;-80
2023/08/05 09:26:27;;;;;;;3.03;1.30;;;20.00;99.90;;;;;;4232230;28;20092;-80
2023/08/05 09:28:30;;;;;;;2.75;1.10;;;20.10;99.90;;;;;;4213876;28;20151;-80
2023/08/05 09:30:32;;;;;;;5.80;1.40;;;20.20;99.90;;;;;;4230998;28;20051;-80
2023/08/05 09:32:33;;;;;;;2.60;1.30;;;20.30;99.90;;;;;;4231826;28;20109;-80
2023/08/05 09:34:35;;;;;;;2.90;1.48;;;20.30;99.90;;;;;;4230884;28;20067;-80
2023/08/05 09:36:39;;;;;;;4.32;1.48;;;20.30;99.90;;;;;;4213486;28;20054;-80
2023/08/05 09:38:40;;;;;;;2.65;1.02;;;20.50;99.90;;;;;;4230806;28;20508;-80
2023/08/05 09:40:42;;;;;;;2.40;1.13;;;20.70;99.90;;;;;;4231912;28;20046;-80
2023/08/05 09:42:50;;;;;;;3.50;1.20;;;20.90;99.90;;;;;;4230788;28;20044;-80
2023/08/05 09:44:53;;;;;;;2.13;1.23;;;21.20;99.90;;;;;;4231957;28;20055;-80
2023/08/05 09:46:59;;;;;;;3.00;1.15;;;21.30;99.90;;;;;;4231999;28;20047;-80
2023/08/05 09:49:00;;;;;;;3.60;1.77;;;21.50;99.90;;;;;;4230463;28;20048;-80
2023/08/05 09:51:03;;;;;;;2.85;0.98;;;21.70;99.90;;;;;;4231643;28;20047;-80
2023/08/05 09:53:06;;;;;;;2.40;1.20;;;21.60;99.90;;;;;;4213950;28;20110;-80
2023/08/05 09:55:18;;;;;;;1.40;0.98;;;21.40;99.90;;;;;;4230825;28;20051;-80
2023/08/05 09:57:20;;;;;;;1.95;0.65;;;21.50;99.90;;;;;;4231235;28;20043;-80
2023/08/05 09:59:21;;;;;;;1.02;0.80;;;21.60;99.90;;;;;;4214136;28;20059;-80
2023/08/05 10:01:22;;;;;;;1.80;0.90;;;21.80;99.90;;;;;;4231708;28;20491;-80
2023/08/05 10:03:26;;;;;;;2.17;1.00;;;22.00;99.90;;;;;;4230705;28;20043;-80
2023/08/05 10:05:26;;;;;;;2.22;0.90;;;22.30;99.90;;;;;;4230579;28;20107;-80
2023/08/05 10:07:28;;;;;;;1.92;0.93;;;22.30;99.90;;;;;;4229651;28;20124;-79
2023/08/05 10:09:28;;;;;;;1.73;1.20;;;22.30;99.90;;;;;;4229888;28;20063;-80
2023/08/05 10:11:29;;;;;;;1.95;0.93;;;22.30;99.90;;;;;;4229998;28;20454;-80
2023/08/05 10:13:36;;;;;;;3.53;0.90;;;22.40;99.90;;;;;;4231692;28;20039;-80
2023/08/05 10:15:40;;;;;;;1.58;0.93;;;22.40;99.90;;;;;;4230013;28;20118;-79
2023/08/05 10:17:42;;;;;;;2.35;0.93;;;22.50;99.90;;;;;;4230021;28;20051;-79
2023/08/05 10:19:49;;;;;;;1.67;1.00;;;22.60;99.90;;;;;;4231466;28;20100;-79
2023/08/05 10:21:50;;;;;;;4.30;1.15;;;22.80;99.90;;;;;;4229963;28;20075;-79
2023/08/05 10:24:00;;;;;;;2.53;0.80;;;22.80;99.90;;;;;;4230063;28;20050;-79
2023/08/05 10:26:04;;;;;;;1.23;0.70;;;22.70;99.90;;;;;;4229691;28;20516;-80
2023/08/05 10:28:04;;;;;;;2.55;1.08;;;22.50;99.90;;;;;;4231386;28;20452;-80
2023/08/05 10:30:09;;;;;;;1.92;0.90;;;22.40;99.90;;;;;;4231121;28;20100;-79